sensor_id;sensor_type;location;lat;lon;timestamp;pressure;altitude;pressure_sealevel;temperature;humidity
50430;BME280;36359;41.556;-8.418;2023-04-01T00:01:07;101043.69;;;15.31;100.00
50430;BME280;36359;41.556;-8.418;2023-04-01T00:03:33;101039.00;;;15.15;100.00
50430;BME280;36359;41.556;-8.418;2023-04-01T00:06:01;101046.88;;;15.18;100.00
50430;BME280;36359;41.556;-8.418;2023-04-01T00:08:27;101045.13;;;15.17;100.00
50430;BME280;36359;41.556;-8.418;2023-04-01T00:10:53;101030.16;;;15.21;100.00
50430;BME280;36359;41.556;-8.418;2023-04-01T00:13:19;101017.47;;;15.20;100.00
50430;BME280;36359;41.556;-8.418;2023-04-01T00:15:45;101022.75;;;15.13;100.00
50430;BME280;36359;41.556;-8.418;2023-04-01T00:18:11;101029.72;;;15.08;100.00
50430;BME280;36359;41.556;-8.418;2023-04-01T00:20:37;101030.50;;;15.26;100.00
50430;BME280;36359;41.556;-8.418;2023-04-01T00:23:03;101028.63;;;15.27;100.00
50430;BME280;36359;41.556;-8.418;2023-04-01T00:25:30;101024.69;;;15.21;100.00
50430;BME280;36359;41.556;-8.418;2023-04-01T00:27:56;101036.19;;;15.41;100.00
50430;BME280;36359;41.556;-8.418;2023-04-01T00:30:22;101026.84;;;15.52;100.00
50430;BME280;36359;41.556;-8.418;2023-04-01T00:32:52;101032.97;;;15.45;100.00
50430;BME280;36359;41.556;-8.418;2023-04-01T00:35:18;101030.41;;;15.44;100.00
50430;BME280;36359;41.556;-8.418;2023-04-01T00:37:44;101028.09;;;15.65;99.71
50430;BME280;36359;41.556;-8.418;2023-04-01T00:40:43;101021.38;;;15.52;99.84
50430;BME280;36359;41.556;-8.418;2023-04-01T00:43:17;101020.00;;;15.48;100.00
50430;BME280;36359;41.556;-8.418;2023-04-01T00:45:46;101019.13;;;15.39;100.00
50430;BME280;36359;41.556;-8.418;2023-04-01T00:48:25;101014.72;;;15.54;100.00
50430;BME280;36359;41.556;-8.418;2023-04-01T00:50:58;101013.34;;;15.58;99.71
50430;BME280;36359;41.556;-8.418;2023-04-01T00:53:25;101006.09;;;15.75;98.25
50430;BME280;36359;41.556;-8.418;2023-04-01T00:55:57;101013.31;;;15.93;96.74
50430;BME280;36359;41.556;-8.418;2023-04-01T00:58:26;101000.97;;;15.72;98.94
50430;BME280;36359;41.556;-8.418;2023-04-01T01:00:53;101002.78;;;15.63;99.16
50430;BME280;36359;41.556;-8.418;2023-04-01T01:03:20;100995.69;;;15.87;96.91
50430;BME280;36359;41.556;-8.418;2023-04-01T01:06:02;100997.81;;;15.67;99.13
50430;BME280;36359;41.556;-8.418;2023-04-01T01:11:35;100981.03;;;15.45;100.00
50430;BME280;36359;41.556;-8.418;2023-04-01T01:14:12;100980.13;;;15.37;100.00
50430;BME280;36359;41.556;-8.418;2023-04-01T01:16:48;100995.50;;;15.30;100.00
50430;BME280;36359;41.556;-8.418;2023-04-01T01:22:11;100981.03;;;15.03;100.00
50430;BME280;36359;41.556;-8.418;2023-04-01T01:27:22;100991.16;;;14.85;100.00
50430;BME280;36359;41.556;-8.418;2023-04-01T01:37:30;100991.22;;;14.49;100.00
50430;BME280;36359;41.556;-8.418;2023-04-01T01:40:01;100991.47;;;14.38;100.00
50430;BME280;36359;41.556;-8.418;2023-04-01T01:42:31;100980.00;;;14.52;100.00
50430;BME280;36359;41.556;-8.418;2023-04-01T01:44:59;100963.63;;;14.78;100.00
50430;BME280;36359;41.556;-8.418;2023-04-01T01:47:28;100973.31;;;14.72;100.00
50430;BME280;36359;41.556;-8.418;2023-04-01T01:49:56;100968.94;;;14.80;100.00
50430;BME280;36359;41.556;-8.418;2023-04-01T01:52:23;100964.47;;;14.79;100.00
50430;BME280;36359;41.556;-8.418;2023-04-01T01:54:54;100969.56;;;14.73;100.00
50430;BME280;36359;41.556;-8.418;2023-04-01T01:57:26;100973.00;;;14.75;100.00
50430;BME280;36359;41.556;-8.418;2023-04-01T02:00:03;100977.22;;;14.70;100.00
50430;BME280;36359;41.556;-8.418;2023-04-01T02:02:43;100985.47;;;14.52;100.00
50430;BME280;36359;41.556;-8.418;2023-04-01T02:05:16;100988.66;;;14.47;100.00
50430;BME280;36359;41.556;-8.418;2023-04-01T02:07:46;100992.25;;;14.48;100.00
50430;BME280;36359;41.556;-8.418;2023-04-01T02:10:14;100990.19;;;14.50;100.00
50430;BME280;36359;41.556;-8.418;2023-04-01T02:12:42;100986.56;;;14.59;100.00
50430;BME280;36359;41.556;-8.418;2023-04-01T02:15:12;100983.28;;;14.56;100.00
50430;BME280;36359;41.556;-8.418;2023-04-01T02:17:43;100984.25;;;14.72;100.00
50430;BME280;36359;41.556;-8.418;2023-04-01T02:20:17;100976.81;;;14.57;100.00
50430;BME280;36359;41.556;-8.418;2023-04-01T02:22:48;100974.16;;;14.65;100.00
50430;BME280;36359;41.556;-8.418;2023-04-01T02:25:24;100965.72;;;14.58;100.00
50430;BME280;36359;41.556;-8.418;2023-04-01T02:30:25;100962.91;;;14.68;100.00
50430;BME280;36359;41.556;-8.418;2023-04-01T02:32:53;100962.44;;;14.81;100.00
50430;BME280;36359;41.556;-8.418;2023-04-01T02:35:20;100956.78;;;14.74;100.00
50430;BME280;36359;41.556;-8.418;2023-04-01T02:37:48;100961.03;;;14.68;100.00
50430;BME280;36359;41.556;-8.418;2023-04-01T02:40:16;100958.81;;;14.72;100.00
50430;BME280;36359;41.556;-8.418;2023-04-01T02:42:42;100953.69;;;14.69;100.00
50430;BME280;36359;41.556;-8.418;2023-04-01T02:45:09;100949.84;;;14.62;100.00
50430;BME280;36359;41.556;-8.418;2023-04-01T02:47:35;100955.88;;;14.65;100.00
50430;BME280;36359;41.556;-8.418;2023-04-01T02:50:01;100943.22;;;14.64;100.00
50430;BME280;36359;41.556;-8.418;2023-04-01T02:52:28;100937.94;;;14.63;100.00
50430;BME280;36359;41.556;-8.418;2023-04-01T02:54:57;100944.25;;;14.63;100.00
50430;BME280;36359;41.556;-8.418;2023-04-01T02:57:23;100948.47;;;14.84;100.00
50430;BME280;36359;41.556;-8.418;2023-04-01T02:59:50;100948.47;;;14.84;100.00
50430;BME280;36359;41.556;-8.418;2023-04-01T03:02:16;100951.34;;;14.82;100.00
50430;BME280;36359;41.556;-8.418;2023-04-01T03:04:42;100950.69;;;14.80;100.00
50430;BME280;36359;41.556;-8.418;2023-04-01T03:07:09;100954.06;;;14.82;100.00
50430;BME280;36359;41.556;-8.418;2023-04-01T03:09:38;100956.13;;;14.80;100.00
50430;BME280;36359;41.556;-8.418;2023-04-01T03:12:04;100957.13;;;14.79;100.00
50430;BME280;36359;41.556;-8.418;2023-04-01T03:14:36;100957.00;;;14.81;100.00
50430;BME280;36359;41.556;-8.418;2023-04-01T03:17:02;100954.91;;;14.74;100.00
50430;BME280;36359;41.556;-8.418;2023-04-01T03:19:27;100953.34;;;14.72;100.00
50430;BME280;36359;41.556;-8.418;2023-04-01T03:21:54;100945.09;;;14.64;100.00
50430;BME280;36359;41.556;-8.418;2023-04-01T03:24:20;100939.50;;;14.73;100.00
50430;BME280;36359;41.556;-8.418;2023-04-01T03:26:46;100948.41;;;14.75;100.00
50430;BME280;36359;41.556;-8.418;2023-04-01T03:29:12;100938.56;;;14.83;100.00
50430;BME280;36359;41.556;-8.418;2023-04-01T03:31:41;100930.78;;;14.70;100.00
50430;BME280;36359;41.556;-8.418;2023-04-01T03:34:07;100936.84;;;14.82;100.00
50430;BME280;36359;41.556;-8.418;2023-04-01T03:36:33;100949.44;;;14.74;100.00
50430;BME280;36359;41.556;-8.418;2023-04-01T03:38:58;100944.97;;;14.73;100.00
50430;BME280;36359;41.556;-8.418;2023-04-01T03:41:36;100946.66;;;14.66;100.00
50430;BME280;36359;41.556;-8.418;2023-04-01T03:44:03;100948.88;;;14.63;100.00
50430;BME280;36359;41.556;-8.418;2023-04-01T03:46:29;100951.06;;;14.59;100.00
50430;BME280;36359;41.556;-8.418;2023-04-01T03:48:55;100949.19;;;14.60;100.00
50430;BME280;36359;41.556;-8.418;2023-04-01T03:51:20;100947.78;;;14.56;100.00
50430;BME280;36359;41.556;-8.418;2023-04-01T03:53:46;100952.16;;;14.48;100.00
50430;BME280;36359;41.556;-8.418;2023-04-01T03:56:12;100941.88;;;14.42;100.00
50430;BME280;36359;41.556;-8.418;2023-04-01T03:58:38;100942.66;;;14.35;100.00
50430;BME280;36359;41.556;-8.418;2023-04-01T04:01:18;100942.34;;;14.38;100.00
50430;BME280;36359;41.556;-8.418;2023-04-01T04:03:45;100932.06;;;14.31;100.00
50430;BME280;36359;41.556;-8.418;2023-04-01T04:06:13;100940.25;;;14.31;100.00
50430;BME280;36359;41.556;-8.418;2023-04-01T04:08:39;100935.88;;;14.39;100.00
50430;BME280;36359;41.556;-8.418;2023-04-01T04:11:05;100934.00;;;14.39;100.00
50430;BME280;36359;41.556;-8.418;2023-04-01T04:13:31;100940.69;;;14.45;100.00
50430;BME280;36359;41.556;-8.418;2023-04-01T04:16:00;100934.16;;;14.38;100.00
50430;BME280;36359;41.556;-8.418;2023-04-01T04:18:27;100934.16;;;14.38;100.00
50430;BME280;36359;41.556;-8.418;2023-04-01T04:20:52;100943.19;;;14.38;100.00
50430;BME280;36359;41.556;-8.418;2023-04-01T04:23:19;100938.22;;;14.34;100.00
50430;BME280;36359;41.556;-8.418;2023-04-01T04:26:00;100940.56;;;14.28;100.00
50430;BME280;36359;41.556;-8.418;2023-04-01T04:31:10;100940.88;;;14.25;100.00
50430;BME280;36359;41.556;-8.418;2023-04-01T04:33:40;100942.22;;;14.21;100.00
50430;BME280;36359;41.556;-8.418;2023-04-01T04:36:06;100943.22;;;14.20;100.00
50430;BME280;36359;41.556;-8.418;2023-04-01T04:38:32;100939.81;;;14.18;100.00
50430;BME280;36359;41.556;-8.418;2023-04-01T04:40:58;100942.22;;;14.21;100.00
50430;BME280;36359;41.556;-8.418;2023-04-01T04:43:24;100938.66;;;14.21;100.00
50430;BME280;36359;41.556;-8.418;2023-04-01T04:45:50;100944.63;;;14.24;100.00
50430;BME280;36359;41.556;-8.418;2023-04-01T04:48:16;100929.25;;;14.23;100.00
50430;BME280;36359;41.556;-8.418;2023-04-01T04:50:46;100928.16;;;14.34;100.00
50430;BME280;36359;41.556;-8.418;2023-04-01T04:53:14;100931.78;;;14.43;100.00
50430;BME280;36359;41.556;-8.418;2023-04-01T04:55:48;100933.19;;;14.47;100.00
50430;BME280;36359;41.556;-8.418;2023-04-01T04:58:33;100926.88;;;14.46;100.00
50430;BME280;36359;41.556;-8.418;2023-04-01T05:01:08;100935.91;;;14.47;100.00
50430;BME280;36359;41.556;-8.418;2023-04-01T05:03:34;100931.09;;;14.41;100.00
50430;BME280;36359;41.556;-8.418;2023-04-01T05:06:00;100929.44;;;14.48;100.00
50430;BME280;36359;41.556;-8.418;2023-04-01T05:08:26;100924.66;;;14.50;100.00
50430;BME280;36359;41.556;-8.418;2023-04-01T05:10:52;100924.09;;;14.56;100.00
50430;BME280;36359;41.556;-8.418;2023-04-01T05:13:17;100929.59;;;14.46;100.00
50430;BME280;36359;41.556;-8.418;2023-04-01T05:15:46;100920.22;;;14.49;100.00
50430;BME280;36359;41.556;-8.418;2023-04-01T05:18:11;100939.06;;;14.52;100.00
50430;BME280;36359;41.556;-8.418;2023-04-01T05:20:37;100944.56;;;14.60;100.00
50430;BME280;36359;41.556;-8.418;2023-04-01T05:23:03;100933.00;;;14.66;100.00
50430;BME280;36359;41.556;-8.418;2023-04-01T05:25:29;100943.72;;;14.60;100.00
50430;BME280;36359;41.556;-8.418;2023-04-01T05:27:55;100935.16;;;14.54;100.00
50430;BME280;36359;41.556;-8.418;2023-04-01T05:30:21;100938.63;;;14.47;100.00
50430;BME280;36359;41.556;-8.418;2023-04-01T05:33:05;100939.75;;;14.54;100.00
50430;BME280;36359;41.556;-8.418;2023-04-01T05:35:31;100952.72;;;14.52;100.00
50430;BME280;36359;41.556;-8.418;2023-04-01T05:37:57;100960.06;;;14.51;100.00
50430;BME280;36359;41.556;-8.418;2023-04-01T05:40:22;100952.72;;;14.52;100.00
50430;BME280;36359;41.556;-8.418;2023-04-01T05:42:48;100957.31;;;14.51;100.00
50430;BME280;36359;41.556;-8.418;2023-04-01T05:45:15;100961.19;;;14.49;100.00
50430;BME280;36359;41.556;-8.418;2023-04-01T05:48:01;100957.53;;;14.58;100.00
50430;BME280;36359;41.556;-8.418;2023-04-01T05:50:31;100955.13;;;14.55;100.00
50430;BME280;36359;41.556;-8.418;2023-04-01T05:52:56;100959.59;;;14.64;100.00
50430;BME280;36359;41.556;-8.418;2023-04-01T05:55:22;100953.78;;;14.59;100.00
50430;BME280;36359;41.556;-8.418;2023-04-01T05:57:49;100953.69;;;14.51;100.00
50430;BME280;36359;41.556;-8.418;2023-04-01T06:00:16;100954.44;;;14.53;100.00
50430;BME280;36359;41.556;-8.418;2023-04-01T06:02:43;100953.84;;;14.49;100.00
50430;BME280;36359;41.556;-8.418;2023-04-01T06:05:19;100953.00;;;14.49;100.00
50430;BME280;36359;41.556;-8.418;2023-04-01T06:07:46;100943.78;;;14.50;100.00
50430;BME280;36359;41.556;-8.418;2023-04-01T06:10:15;100950.59;;;14.46;100.00
50430;BME280;36359;41.556;-8.418;2023-04-01T06:32:32;100970.47;;;14.12;100.00
50430;BME280;36359;41.556;-8.418;2023-04-01T06:45:58;100962.66;;;14.17;100.00
50430;BME280;36359;41.556;-8.418;2023-04-01T06:52:25;100959.13;;;14.25;100.00
50430;BME280;36359;41.556;-8.418;2023-04-01T06:55:35;100943.50;;;14.35;100.00
50430;BME280;36359;41.556;-8.418;2023-04-01T06:58:22;100935.28;;;14.27;100.00
50430;BME280;36359;41.556;-8.418;2023-04-01T07:00:58;100947.59;;;14.31;100.00
50430;BME280;36359;41.556;-8.418;2023-04-01T07:03:32;100953.00;;;14.49;100.00
50430;BME280;36359;41.556;-8.418;2023-04-01T07:06:03;100954.44;;;14.53;100.00
50430;BME280;36359;41.556;-8.418;2023-04-01T07:08:36;100959.91;;;14.53;100.00
50430;BME280;36359;41.556;-8.418;2023-04-01T07:11:11;100963.63;;;14.34;100.00
50430;BME280;36359;41.556;-8.418;2023-04-01T07:14:16;100967.28;;;14.43;100.00
50430;BME280;36359;41.556;-8.418;2023-04-01T07:16:51;100982.28;;;14.57;100.00
50430;BME280;36359;41.556;-8.418;2023-04-01T07:19:42;100992.66;;;14.79;100.00
50430;BME280;36359;41.556;-8.418;2023-04-01T07:25:19;100982.63;;;14.44;100.00
50430;BME280;36359;41.556;-8.418;2023-04-01T07:28:01;100977.19;;;14.44;100.00
50430;BME280;36359;41.556;-8.418;2023-04-01T07:31:17;100981.03;;;14.33;100.00
50430;BME280;36359;41.556;-8.418;2023-04-01T07:36:12;100964.13;;;14.29;100.00
50430;BME280;36359;41.556;-8.418;2023-04-01T07:55:23;100981.81;;;14.25;100.00
50430;BME280;36359;41.556;-8.418;2023-04-01T08:01:06;100963.31;;;14.55;100.00
50430;BME280;36359;41.556;-8.418;2023-04-01T08:06:14;100966.09;;;14.19;100.00
50430;BME280;36359;41.556;-8.418;2023-04-01T08:09:21;100972.00;;;14.32;100.00
50430;BME280;36359;41.556;-8.418;2023-04-01T08:20:47;100975.31;;;14.62;100.00
50430;BME280;36359;41.556;-8.418;2023-04-01T08:23:17;100977.28;;;14.52;100.00
50430;BME280;36359;41.556;-8.418;2023-04-01T08:25:59;100969.28;;;14.59;100.00
50430;BME280;36359;41.556;-8.418;2023-04-01T08:28:37;100980.53;;;14.56;100.00
50430;BME280;36359;41.556;-8.418;2023-04-01T08:31:14;100981.47;;;14.46;100.00
50430;BME280;36359;41.556;-8.418;2023-04-01T08:33:44;100976.28;;;14.53;100.00
50430;BME280;36359;41.556;-8.418;2023-04-01T08:36:19;100994.91;;;14.40;100.00
50430;BME280;36359;41.556;-8.418;2023-04-01T08:39:01;101003.81;;;14.42;100.00
50430;BME280;36359;41.556;-8.418;2023-04-01T09:14:29;101007.53;;;14.85;100.00
50430;BME280;36359;41.556;-8.418;2023-04-01T09:31:46;101010.19;;;14.50;100.00
50430;BME280;36359;41.556;-8.418;2023-04-01T09:40:18;101005.44;;;14.35;100.00
50430;BME280;36359;41.556;-8.418;2023-04-01T09:43:20;101014.78;;;14.50;100.00
50430;BME280;36359;41.556;-8.418;2023-04-01T09:46:11;101024.94;;;14.40;100.00
50430;BME280;36359;41.556;-8.418;2023-04-01T09:51:58;101012.06;;;14.32;100.00
50430;BME280;36359;41.556;-8.418;2023-04-01T09:57:28;101011.19;;;14.67;100.00
50430;BME280;36359;41.556;-8.418;2023-04-01T10:02:47;101013.06;;;14.49;100.00
50430;BME280;36359;41.556;-8.418;2023-04-01T10:05:43;101013.56;;;14.62;100.00
50430;BME280;36359;41.556;-8.418;2023-04-01T10:17:05;101001.22;;;14.58;100.00
50430;BME280;36359;41.556;-8.418;2023-04-01T10:36:46;100997.38;;;14.95;100.00
50430;BME280;36359;41.556;-8.418;2023-04-01T10:39:33;100995.50;;;14.69;100.00
50430;BME280;36359;41.556;-8.418;2023-04-01T10:48:12;100972.41;;;14.90;100.00
50430;BME280;36359;41.556;-8.418;2023-04-01T11:02:38;100952.19;;;15.59;100.00
50430;BME280;36359;41.556;-8.418;2023-04-01T11:06:03;100951.03;;;15.78;100.00
50430;BME280;36359;41.556;-8.418;2023-04-01T11:30:20;100927.72;;;16.89;91.91
50430;BME280;36359;41.556;-8.418;2023-04-01T11:33:19;100923.75;;;16.91;91.61
50430;BME280;36359;41.556;-8.418;2023-04-01T11:38:34;100926.69;;;16.82;92.97
50430;BME280;36359;41.556;-8.418;2023-04-01T11:41:41;100929.25;;;16.83;91.25
50430;BME280;36359;41.556;-8.418;2023-04-01T11:44:35;100932.69;;;16.69;92.37
50430;BME280;36359;41.556;-8.418;2023-04-01T11:50:35;100946.44;;;16.36;90.58
50430;BME280;36359;41.556;-8.418;2023-04-01T11:53:31;100944.75;;;16.27;91.76
50430;BME280;36359;41.556;-8.418;2023-04-01T12:12:23;100940.50;;;15.49;98.96
50430;BME280;36359;41.556;-8.418;2023-04-01T12:15:23;100940.16;;;15.44;97.73
50430;BME280;36359;41.556;-8.418;2023-04-01T12:20:37;100937.63;;;15.51;97.36
50430;BME280;36359;41.556;-8.418;2023-04-01T12:25:58;100930.91;;;15.37;96.87
50430;BME280;36359;41.556;-8.418;2023-04-01T12:34:26;100926.19;;;15.47;98.20
50430;BME280;36359;41.556;-8.418;2023-04-01T12:48:17;100939.84;;;15.55;95.90
50430;BME280;36359;41.556;-8.418;2023-04-01T13:10:20;100969.91;;;15.39;95.42
50430;BME280;36359;41.556;-8.418;2023-04-01T13:13:29;100960.69;;;15.48;95.16
50430;BME280;36359;41.556;-8.418;2023-04-01T13:19:07;100956.97;;;15.65;93.25
50430;BME280;36359;41.556;-8.418;2023-04-01T13:43:21;100924.50;;;16.77;86.72
50430;BME280;36359;41.556;-8.418;2023-04-01T13:54:11;100931.75;;;17.71;82.43
50430;BME280;36359;41.556;-8.418;2023-04-01T14:03:04;100916.84;;;17.97;83.43
50430;BME280;36359;41.556;-8.418;2023-04-01T14:06:05;100918.59;;;17.36;83.72
50430;BME280;36359;41.556;-8.418;2023-04-01T14:17:10;100916.97;;;16.63;88.38
50430;BME280;36359;41.556;-8.418;2023-04-01T14:19:59;100908.19;;;16.67;88.80
50430;BME280;36359;41.556;-8.418;2023-04-01T14:25:17;100923.84;;;16.50;88.92
50430;BME280;36359;41.556;-8.418;2023-04-01T14:27:54;100916.97;;;16.63;89.05
50430;BME280;36359;41.556;-8.418;2023-04-01T14:30:32;100916.94;;;16.79;88.07
50430;BME280;36359;41.556;-8.418;2023-04-01T14:33:16;100911.63;;;16.86;88.67
50430;BME280;36359;41.556;-8.418;2023-04-01T14:39:29;100904.09;;;17.19;86.09
50430;BME280;36359;41.556;-8.418;2023-04-01T14:47:58;100911.88;;;17.07;88.44
50430;BME280;36359;41.556;-8.418;2023-04-01T14:50:30;100908.47;;;17.36;85.29
50430;BME280;36359;41.556;-8.418;2023-04-01T14:55:52;100908.63;;;17.03;86.85
50430;BME280;36359;41.556;-8.418;2023-04-01T14:58:19;100897.53;;;17.28;86.93
50430;BME280;36359;41.556;-8.418;2023-04-01T15:01:10;100897.94;;;17.17;86.77
50430;BME280;36359;41.556;-8.418;2023-04-01T15:14:51;100891.03;;;16.90;88.72
50430;BME280;36359;41.556;-8.418;2023-04-01T15:17:51;100894.00;;;16.64;89.81
50430;BME280;36359;41.556;-8.418;2023-04-01T15:28:05;100887.53;;;16.48;91.74
50430;BME280;36359;41.556;-8.418;2023-04-01T15:30:50;100888.94;;;16.44;92.38
50430;BME280;36359;41.556;-8.418;2023-04-01T15:36:28;100885.34;;;16.35;90.89
50430;BME280;36359;41.556;-8.418;2023-04-01T15:44:01;100888.94;;;16.44;90.30
50430;BME280;36359;41.556;-8.418;2023-04-01T15:46:47;100882.41;;;16.45;89.37
50430;BME280;36359;41.556;-8.418;2023-04-01T15:52:14;100882.09;;;16.32;89.06
50430;BME280;36359;41.556;-8.418;2023-04-01T16:00:30;100877.66;;;16.23;89.84
50430;BME280;36359;41.556;-8.418;2023-04-01T16:21:57;100863.94;;;16.31;86.46
50430;BME280;36359;41.556;-8.418;2023-04-01T16:27:40;100874.72;;;16.41;89.66
50430;BME280;36359;41.556;-8.418;2023-04-01T16:43:50;100863.16;;;16.78;85.51
50430;BME280;36359;41.556;-8.418;2023-04-01T16:46:39;100862.81;;;16.81;84.30
50430;BME280;36359;41.556;-8.418;2023-04-01T16:51:48;100856.09;;;16.92;84.22
50430;BME280;36359;41.556;-8.418;2023-04-01T17:02:37;100866.53;;;17.28;85.54
50430;BME280;36359;41.556;-8.418;2023-04-01T17:05:05;100863.28;;;17.47;84.31
50430;BME280;36359;41.556;-8.418;2023-04-01T17:11:13;100866.81;;;17.56;87.38
50430;BME280;36359;41.556;-8.418;2023-04-01T17:13:43;100868.19;;;17.60;84.19
50430;BME280;36359;41.556;-8.418;2023-04-01T17:22:21;100865.31;;;17.30;86.35
50430;BME280;36359;41.556;-8.418;2023-04-01T17:28:15;100865.53;;;17.43;84.47
50430;BME280;36359;41.556;-8.418;2023-04-01T17:36:01;100874.00;;;17.02;83.09
50430;BME280;36359;41.556;-8.418;2023-04-01T17:41:45;100875.38;;;17.07;82.46
50430;BME280;36359;41.556;-8.418;2023-04-01T17:47:00;100875.72;;;17.03;83.63
50430;BME280;36359;41.556;-8.418;2023-04-01T17:52:33;100884.63;;;17.06;86.50
50430;BME280;36359;41.556;-8.418;2023-04-01T17:55:38;100882.44;;;17.01;84.04
50430;BME280;36359;41.556;-8.418;2023-04-01T17:58:20;100884.09;;;16.63;84.92
50430;BME280;36359;41.556;-8.418;2023-04-01T18:01:24;100880.19;;;16.41;84.28
50430;BME280;36359;41.556;-8.418;2023-04-01T18:06:47;100893.41;;;16.12;87.46
50430;BME280;36359;41.556;-8.418;2023-04-01T18:12:20;100886.75;;;15.99;85.74
50430;BME280;36359;41.556;-8.418;2023-04-01T18:20:31;100897.19;;;16.03;85.68
50430;BME280;36359;41.556;-8.418;2023-04-01T18:23:19;100901.28;;;15.83;86.22
50430;BME280;36359;41.556;-8.418;2023-04-01T18:25:53;100906.41;;;15.78;86.81
50430;BME280;36359;41.556;-8.418;2023-04-01T18:31:20;100907.78;;;15.82;88.03
50430;BME280;36359;41.556;-8.418;2023-04-01T18:39:17;100917.53;;;15.68;87.97
50430;BME280;36359;41.556;-8.418;2023-04-01T18:41:59;100917.63;;;15.50;89.60
50430;BME280;36359;41.556;-8.418;2023-04-01T18:44:43;100928.22;;;15.45;89.94
50430;BME280;36359;41.556;-8.418;2023-04-01T18:47:17;100927.34;;;15.36;90.33
50430;BME280;36359;41.556;-8.418;2023-04-01T18:49:55;100933.28;;;15.32;90.87
50430;BME280;36359;41.556;-8.418;2023-04-01T18:52:41;100934.69;;;15.36;90.67
50430;BME280;36359;41.556;-8.418;2023-04-01T19:00:22;100943.81;;;15.10;92.68
50430;BME280;36359;41.556;-8.418;2023-04-01T19:05:45;100943.81;;;14.76;93.95
50430;BME280;36359;41.556;-8.418;2023-04-01T19:08:32;100946.53;;;14.76;94.11
50430;BME280;36359;41.556;-8.418;2023-04-01T19:14:09;100941.91;;;14.68;94.88
50430;BME280;36359;41.556;-8.418;2023-04-01T19:16:54;100948.38;;;14.49;95.12
50430;BME280;36359;41.556;-8.418;2023-04-01T19:25:23;100947.69;;;14.21;96.25
50430;BME280;36359;41.556;-8.418;2023-04-01T19:27:53;100948.47;;;14.14;96.01
50430;BME280;36359;41.556;-8.418;2023-04-01T19:46:51;100975.06;;;13.94;97.90
50430;BME280;36359;41.556;-8.418;2023-04-01T19:57:26;100985.59;;;13.71;97.97
50430;BME280;36359;41.556;-8.418;2023-04-01T20:03:13;100991.59;;;13.74;97.64
50430;BME280;36359;41.556;-8.418;2023-04-01T20:11:55;101028.53;;;13.86;95.66
50430;BME280;36359;41.556;-8.418;2023-04-01T20:14:51;101024.31;;;14.46;95.16
50430;BME280;36359;41.556;-8.418;2023-04-01T20:17:43;101027.34;;;14.61;93.17
50430;BME280;36359;41.556;-8.418;2023-04-01T20:25:20;101046.63;;;14.23;94.47
50430;BME280;36359;41.556;-8.418;2023-04-01T20:27:58;101045.22;;;14.55;92.87
50430;BME280;36359;41.556;-8.418;2023-04-01T20:33:21;101057.06;;;14.46;92.84
50430;BME280;36359;41.556;-8.418;2023-04-01T20:36:31;101054.44;;;14.54;92.81
50430;BME280;36359;41.556;-8.418;2023-04-01T20:44:38;101060.75;;;14.37;91.97
50430;BME280;36359;41.556;-8.418;2023-04-01T20:49:59;101069.47;;;14.22;92.55
50430;BME280;36359;41.556;-8.418;2023-04-01T20:52:44;101074.81;;;14.24;92.69
50430;BME280;36359;41.556;-8.418;2023-04-01T20:55:30;101081.03;;;14.16;92.87
50430;BME280;36359;41.556;-8.418;2023-04-01T21:00:55;101082.09;;;14.05;92.96
50430;BME280;36359;41.556;-8.418;2023-04-01T21:03:34;101091.06;;;13.98;93.69
50430;BME280;36359;41.556;-8.418;2023-04-01T21:17:33;101093.25;;;13.67;94.92
50430;BME280;36359;41.556;-8.418;2023-04-01T21:23:14;101099.50;;;14.40;92.91
50430;BME280;36359;41.556;-8.418;2023-04-01T21:31:39;101097.84;;;14.12;90.31
50430;BME280;36359;41.556;-8.418;2023-04-01T21:40:18;101124.78;;;13.97;90.57
50430;BME280;36359;41.556;-8.418;2023-04-01T21:43:09;101126.91;;;14.03;92.58
50430;BME280;36359;41.556;-8.418;2023-04-01T21:48:58;101123.59;;;14.09;89.11
50430;BME280;36359;41.556;-8.418;2023-04-01T22:03:03;101123.97;;;13.69;89.14
50430;BME280;36359;41.556;-8.418;2023-04-01T22:06:14;101130.94;;;13.44;90.90
50430;BME280;36359;41.556;-8.418;2023-04-01T22:08:50;101134.91;;;13.86;90.11
50430;BME280;36359;41.556;-8.418;2023-04-01T22:11:26;101133.72;;;13.71;90.16
50430;BME280;36359;41.556;-8.418;2023-04-01T22:14:31;101137.59;;;13.69;88.53
50430;BME280;36359;41.556;-8.418;2023-04-01T22:17:12;101142.50;;;13.93;91.26
50430;BME280;36359;41.556;-8.418;2023-04-01T22:27:38;101141.06;;;14.16;91.57
50430;BME280;36359;41.556;-8.418;2023-04-01T22:30:23;101150.28;;;14.15;89.18
50430;BME280;36359;41.556;-8.418;2023-04-01T22:33:07;101152.56;;;13.92;86.42
50430;BME280;36359;41.556;-8.418;2023-04-01T22:49:26;101144.91;;;13.68;89.49
50430;BME280;36359;41.556;-8.418;2023-04-01T22:52:05;101150.66;;;13.18;90.58
50430;BME280;36359;41.556;-8.418;2023-04-01T22:54:40;101148.50;;;13.12;90.71
50430;BME280;36359;41.556;-8.418;2023-04-01T22:57:16;101145.47;;;13.34;91.93
50430;BME280;36359;41.556;-8.418;2023-04-01T23:08:57;101158.28;;;12.66;94.30
50430;BME280;36359;41.556;-8.418;2023-04-01T23:11:25;101160.72;;;12.69;93.22
50430;BME280;36359;41.556;-8.418;2023-04-01T23:16:38;101170.03;;;12.76;93.68
50430;BME280;36359;41.556;-8.418;2023-04-01T23:19:15;101171.19;;;12.73;93.58
50430;BME280;36359;41.556;-8.418;2023-04-01T23:24:32;101169.91;;;12.78;93.65
50430;BME280;36359;41.556;-8.418;2023-04-01T23:27:21;101165.44;;;12.67;92.33
50430;BME280;36359;41.556;-8.418;2023-04-01T23:29:50;101170.19;;;12.75;92.20
50430;BME280;36359;41.556;-8.418;2023-04-01T23:32:18;101166.88;;;12.81;90.68
50430;BME280;36359;41.556;-8.418;2023-04-01T23:34:53;101174.91;;;12.82;89.81
50430;BME280;36359;41.556;-8.418;2023-04-01T23:37:20;101174.34;;;12.59;91.37